sensor_id;sensor_type;location;lat;lon;timestamp;P1;durP1;ratioP1;P2;durP2;ratioP2
67640;SDS011;54434;50.096;20.082;2023-04-22T00:02:07;44.60;;;18.90;;
67640;SDS011;54434;50.096;20.082;2023-04-22T00:04:47;39.70;;;18.30;;
67640;SDS011;54434;50.096;20.082;2023-04-22T00:07:23;40.70;;;18.00;;
67640;SDS011;54434;50.096;20.082;2023-04-22T00:10:00;35.40;;;17.80;;
67640;SDS011;54434;50.096;20.082;2023-04-22T00:12:37;35.70;;;17.50;;
67640;SDS011;54434;50.096;20.082;2023-04-22T00:15:14;34.10;;;17.40;;
67640;SDS011;54434;50.096;20.082;2023-04-22T00:18:02;40.20;;;17.20;;
67640;SDS011;54434;50.096;20.082;2023-04-22T00:20:40;34.80;;;17.30;;
67640;SDS011;54434;50.096;20.082;2023-04-22T00:23:31;39.60;;;16.90;;
67640;SDS011;54434;50.096;20.082;2023-04-22T00:26:11;31.80;;;16.80;;
67640;SDS011;54434;50.096;20.082;2023-04-22T00:29:04;30.30;;;16.30;;
67640;SDS011;54434;50.096;20.082;2023-04-22T00:32:03;35.60;;;16.50;;
67640;SDS011;54434;50.096;20.082;2023-04-22T00:34:40;35.60;;;16.90;;
67640;SDS011;54434;50.096;20.082;2023-04-22T00:37:16;30.80;;;16.00;;
67640;SDS011;54434;50.096;20.082;2023-04-22T00:40:01;30.60;;;16.10;;
67640;SDS011;54434;50.096;20.082;2023-04-22T00:42:53;32.80;;;17.10;;
67640;SDS011;54434;50.096;20.082;2023-04-22T00:45:39;33.40;;;17.00;;
67640;SDS011;54434;50.096;20.082;2023-04-22T00:48:17;32.80;;;16.30;;
67640;SDS011;54434;50.096;20.082;2023-04-22T00:50:54;27.60;;;15.80;;
67640;SDS011;54434;50.096;20.082;2023-04-22T00:53:31;31.00;;;15.40;;
67640;SDS011;54434;50.096;20.082;2023-04-22T00:56:09;26.30;;;14.60;;
67640;SDS011;54434;50.096;20.082;2023-04-22T00:58:46;32.10;;;16.00;;
67640;SDS011;54434;50.096;20.082;2023-04-22T01:01:23;33.30;;;16.60;;
67640;SDS011;54434;50.096;20.082;2023-04-22T01:04:01;35.30;;;17.30;;
67640;SDS011;54434;50.096;20.082;2023-04-22T01:06:40;35.40;;;15.80;;
67640;SDS011;54434;50.096;20.082;2023-04-22T01:09:19;28.00;;;15.40;;
67640;SDS011;54434;50.096;20.082;2023-04-22T01:11:55;29.10;;;15.90;;
67640;SDS011;54434;50.096;20.082;2023-04-22T01:14:33;29.40;;;15.60;;
67640;SDS011;54434;50.096;20.082;2023-04-22T01:17:10;28.10;;;14.70;;
67640;SDS011;54434;50.096;20.082;2023-04-22T01:20:11;27.10;;;14.90;;
67640;SDS011;54434;50.096;20.082;2023-04-22T01:22:49;32.60;;;14.60;;
67640;SDS011;54434;50.096;20.082;2023-04-22T01:25:28;26.70;;;13.70;;
67640;SDS011;54434;50.096;20.082;2023-04-22T01:28:05;31.50;;;15.10;;
67640;SDS011;54434;50.096;20.082;2023-04-22T01:30:42;32.00;;;15.10;;
67640;SDS011;54434;50.096;20.082;2023-04-22T01:33:19;33.70;;;14.90;;
67640;SDS011;54434;50.096;20.082;2023-04-22T01:35:55;30.90;;;14.50;;
67640;SDS011;54434;50.096;20.082;2023-04-22T01:38:32;28.30;;;14.90;;
67640;SDS011;54434;50.096;20.082;2023-04-22T01:41:09;29.10;;;14.70;;
67640;SDS011;54434;50.096;20.082;2023-04-22T01:43:48;25.50;;;13.60;;
67640;SDS011;54434;50.096;20.082;2023-04-22T01:46:31;29.80;;;13.80;;
67640;SDS011;54434;50.096;20.082;2023-04-22T01:49:08;27.70;;;14.30;;
67640;SDS011;54434;50.096;20.082;2023-04-22T01:51:44;26.10;;;14.60;;
67640;SDS011;54434;50.096;20.082;2023-04-22T01:54:21;28.20;;;13.90;;
67640;SDS011;54434;50.096;20.082;2023-04-22T01:56:57;28.00;;;15.10;;
67640;SDS011;54434;50.096;20.082;2023-04-22T01:59:34;25.90;;;14.20;;
67640;SDS011;54434;50.096;20.082;2023-04-22T02:02:11;29.30;;;14.80;;
67640;SDS011;54434;50.096;20.082;2023-04-22T02:04:48;25.60;;;14.10;;
67640;SDS011;54434;50.096;20.082;2023-04-22T02:07:24;27.50;;;14.20;;
67640;SDS011;54434;50.096;20.082;2023-04-22T02:10:01;28.30;;;15.10;;
67640;SDS011;54434;50.096;20.082;2023-04-22T02:12:41;28.60;;;15.80;;
67640;SDS011;54434;50.096;20.082;2023-04-22T02:15:24;26.40;;;14.40;;
67640;SDS011;54434;50.096;20.082;2023-04-22T02:18:13;28.30;;;14.40;;
67640;SDS011;54434;50.096;20.082;2023-04-22T02:21:07;27.20;;;14.10;;
67640;SDS011;54434;50.096;20.082;2023-04-22T02:23:46;27.30;;;14.40;;
67640;SDS011;54434;50.096;20.082;2023-04-22T02:26:22;25.70;;;14.00;;
67640;SDS011;54434;50.096;20.082;2023-04-22T02:29:13;27.70;;;13.40;;
67640;SDS011;54434;50.096;20.082;2023-04-22T02:31:49;25.60;;;14.30;;
67640;SDS011;54434;50.096;20.082;2023-04-22T02:34:26;27.50;;;13.70;;
67640;SDS011;54434;50.096;20.082;2023-04-22T02:37:02;23.50;;;13.70;;
67640;SDS011;54434;50.096;20.082;2023-04-22T02:39:39;25.70;;;13.80;;
67640;SDS011;54434;50.096;20.082;2023-04-22T02:42:20;26.60;;;13.90;;
67640;SDS011;54434;50.096;20.082;2023-04-22T02:45:16;26.00;;;13.30;;
67640;SDS011;54434;50.096;20.082;2023-04-22T02:47:53;24.40;;;12.90;;
67640;SDS011;54434;50.096;20.082;2023-04-22T02:50:34;24.10;;;14.20;;
67640;SDS011;54434;50.096;20.082;2023-04-22T02:53:11;26.60;;;13.60;;
67640;SDS011;54434;50.096;20.082;2023-04-22T02:55:47;21.60;;;12.70;;
67640;SDS011;54434;50.096;20.082;2023-04-22T02:58:24;24.40;;;14.10;;
67640;SDS011;54434;50.096;20.082;2023-04-22T03:01:01;22.80;;;12.80;;
67640;SDS011;54434;50.096;20.082;2023-04-22T03:03:38;24.10;;;13.50;;
67640;SDS011;54434;50.096;20.082;2023-04-22T03:06:16;26.50;;;13.50;;
67640;SDS011;54434;50.096;20.082;2023-04-22T03:09:03;26.70;;;13.20;;
67640;SDS011;54434;50.096;20.082;2023-04-22T03:11:52;22.80;;;13.00;;
67640;SDS011;54434;50.096;20.082;2023-04-22T03:14:29;21.90;;;12.80;;
67640;SDS011;54434;50.096;20.082;2023-04-22T03:17:11;23.20;;;12.80;;
67640;SDS011;54434;50.096;20.082;2023-04-22T03:19:48;24.00;;;13.00;;
67640;SDS011;54434;50.096;20.082;2023-04-22T03:22:24;23.70;;;13.40;;
67640;SDS011;54434;50.096;20.082;2023-04-22T03:25:03;22.50;;;13.30;;
67640;SDS011;54434;50.096;20.082;2023-04-22T03:27:40;19.80;;;12.00;;
67640;SDS011;54434;50.096;20.082;2023-04-22T03:30:17;25.80;;;13.90;;
67640;SDS011;54434;50.096;20.082;2023-04-22T03:32:56;23.60;;;12.80;;
67640;SDS011;54434;50.096;20.082;2023-04-22T03:35:45;21.90;;;12.80;;
67640;SDS011;54434;50.096;20.082;2023-04-22T03:38:34;23.20;;;13.20;;
67640;SDS011;54434;50.096;20.082;2023-04-22T03:41:16;24.50;;;13.00;;
67640;SDS011;54434;50.096;20.082;2023-04-22T03:43:54;24.10;;;12.90;;
67640;SDS011;54434;50.096;20.082;2023-04-22T03:46:35;22.30;;;13.00;;
67640;SDS011;54434;50.096;20.082;2023-04-22T03:49:25;23.60;;;12.60;;
67640;SDS011;54434;50.096;20.082;2023-04-22T03:52:06;23.60;;;13.10;;
67640;SDS011;54434;50.096;20.082;2023-04-22T03:54:46;20.30;;;12.50;;
67640;SDS011;54434;50.096;20.082;2023-04-22T03:57:23;23.60;;;12.80;;
67640;SDS011;54434;50.096;20.082;2023-04-22T04:00:00;23.90;;;13.10;;
67640;SDS011;54434;50.096;20.082;2023-04-22T04:02:46;19.50;;;12.30;;
67640;SDS011;54434;50.096;20.082;2023-04-22T04:05:27;24.80;;;12.90;;
67640;SDS011;54434;50.096;20.082;2023-04-22T04:08:04;21.20;;;12.00;;
67640;SDS011;54434;50.096;20.082;2023-04-22T04:10:56;22.80;;;12.80;;
67640;SDS011;54434;50.096;20.082;2023-04-22T04:13:33;24.60;;;13.60;;
67640;SDS011;54434;50.096;20.082;2023-04-22T04:16:26;20.70;;;12.00;;
67640;SDS011;54434;50.096;20.082;2023-04-22T04:21:43;18.30;;;10.50;;
67640;SDS011;54434;50.096;20.082;2023-04-22T04:24:20;24.70;;;13.00;;
67640;SDS011;54434;50.096;20.082;2023-04-22T04:26:58;19.00;;;10.90;;
67640;SDS011;54434;50.096;20.082;2023-04-22T04:29:41;21.20;;;11.90;;
67640;SDS011;54434;50.096;20.082;2023-04-22T04:32:20;19.30;;;11.90;;
67640;SDS011;54434;50.096;20.082;2023-04-22T04:34:57;17.60;;;11.20;;
67640;SDS011;54434;50.096;20.082;2023-04-22T04:37:34;18.90;;;12.20;;
67640;SDS011;54434;50.096;20.082;2023-04-22T04:40:14;24.60;;;13.00;;
67640;SDS011;54434;50.096;20.082;2023-04-22T04:43:28;23.70;;;13.80;;
67640;SDS011;54434;50.096;20.082;2023-04-22T04:46:13;23.50;;;13.70;;
67640;SDS011;54434;50.096;20.082;2023-04-22T04:48:50;24.80;;;14.40;;
67640;SDS011;54434;50.096;20.082;2023-04-22T04:51:28;24.00;;;15.00;;
67640;SDS011;54434;50.096;20.082;2023-04-22T04:54:06;24.30;;;15.20;;
67640;SDS011;54434;50.096;20.082;2023-04-22T04:56:44;22.80;;;15.10;;
67640;SDS011;54434;50.096;20.082;2023-04-22T04:59:20;23.60;;;15.80;;
67640;SDS011;54434;50.096;20.082;2023-04-22T05:01:56;25.70;;;14.70;;
67640;SDS011;54434;50.096;20.082;2023-04-22T05:04:43;24.40;;;15.70;;
67640;SDS011;54434;50.096;20.082;2023-04-22T05:07:20;25.60;;;15.30;;
67640;SDS011;54434;50.096;20.082;2023-04-22T05:09:57;27.60;;;14.50;;
67640;SDS011;54434;50.096;20.082;2023-04-22T05:12:49;31.50;;;15.20;;
67640;SDS011;54434;50.096;20.082;2023-04-22T05:15:27;35.40;;;13.90;;
67640;SDS011;54434;50.096;20.082;2023-04-22T05:18:04;35.80;;;14.70;;
67640;SDS011;54434;50.096;20.082;2023-04-22T05:20:42;43.10;;;14.60;;
67640;SDS011;54434;50.096;20.082;2023-04-22T05:23:33;28.20;;;12.40;;
67640;SDS011;54434;50.096;20.082;2023-04-22T05:26:11;33.50;;;12.30;;
67640;SDS011;54434;50.096;20.082;2023-04-22T05:28:48;29.80;;;12.00;;
67640;SDS011;54434;50.096;20.082;2023-04-22T05:31:24;28.00;;;13.10;;
67640;SDS011;54434;50.096;20.082;2023-04-22T05:34:08;28.20;;;11.90;;
67640;SDS011;54434;50.096;20.082;2023-04-22T05:36:55;31.10;;;12.30;;
67640;SDS011;54434;50.096;20.082;2023-04-22T05:39:32;26.20;;;11.40;;
67640;SDS011;54434;50.096;20.082;2023-04-22T05:42:11;26.60;;;12.60;;
67640;SDS011;54434;50.096;20.082;2023-04-22T05:44:48;23.60;;;11.60;;
67640;SDS011;54434;50.096;20.082;2023-04-22T05:47:24;23.90;;;11.50;;
67640;SDS011;54434;50.096;20.082;2023-04-22T05:50:02;22.90;;;12.40;;
67640;SDS011;54434;50.096;20.082;2023-04-22T05:52:45;28.30;;;13.40;;
67640;SDS011;54434;50.096;20.082;2023-04-22T05:55:22;35.20;;;14.00;;
67640;SDS011;54434;50.096;20.082;2023-04-22T05:57:59;28.70;;;14.00;;
67640;SDS011;54434;50.096;20.082;2023-04-22T06:01:16;27.50;;;13.10;;
67640;SDS011;54434;50.096;20.082;2023-04-22T06:04:08;23.50;;;13.50;;
67640;SDS011;54434;50.096;20.082;2023-04-22T06:06:45;32.40;;;13.50;;
67640;SDS011;54434;50.096;20.082;2023-04-22T06:09:22;33.30;;;13.40;;
67640;SDS011;54434;50.096;20.082;2023-04-22T06:12:07;30.30;;;13.90;;
67640;SDS011;54434;50.096;20.082;2023-04-22T06:14:44;33.40;;;13.70;;
67640;SDS011;54434;50.096;20.082;2023-04-22T06:17:20;25.50;;;13.90;;
67640;SDS011;54434;50.096;20.082;2023-04-22T06:19:57;27.30;;;12.70;;
67640;SDS011;54434;50.096;20.082;2023-04-22T06:22:35;19.90;;;12.00;;
67640;SDS011;54434;50.096;20.082;2023-04-22T06:25:21;26.60;;;14.40;;
67640;SDS011;54434;50.096;20.082;2023-04-22T06:27:58;26.30;;;13.10;;
67640;SDS011;54434;50.096;20.082;2023-04-22T06:30:34;29.70;;;12.70;;
67640;SDS011;54434;50.096;20.082;2023-04-22T06:33:11;27.80;;;12.30;;
67640;SDS011;54434;50.096;20.082;2023-04-22T06:35:48;20.80;;;12.60;;
67640;SDS011;54434;50.096;20.082;2023-04-22T06:38:24;19.10;;;10.40;;
67640;SDS011;54434;50.096;20.082;2023-04-22T06:41:41;27.40;;;13.50;;
67640;SDS011;54434;50.096;20.082;2023-04-22T06:45:06;21.80;;;14.40;;
67640;SDS011;54434;50.096;20.082;2023-04-22T06:48:19;20.90;;;11.70;;
67640;SDS011;54434;50.096;20.082;2023-04-22T06:51:15;16.80;;;10.40;;
67640;SDS011;54434;50.096;20.082;2023-04-22T06:53:52;17.50;;;10.20;;
67640;SDS011;54434;50.096;20.082;2023-04-22T06:56:43;16.40;;;10.30;;
67640;SDS011;54434;50.096;20.082;2023-04-22T06:59:20;49.00;;;31.00;;
67640;SDS011;54434;50.096;20.082;2023-04-22T07:01:56;25.80;;;15.40;;
67640;SDS011;54434;50.096;20.082;2023-04-22T07:04:34;23.90;;;12.80;;
67640;SDS011;54434;50.096;20.082;2023-04-22T07:07:12;22.10;;;12.00;;
67640;SDS011;54434;50.096;20.082;2023-04-22T07:09:48;18.10;;;11.90;;
67640;SDS011;54434;50.096;20.082;2023-04-22T07:12:25;17.50;;;11.50;;
67640;SDS011;54434;50.096;20.082;2023-04-22T07:15:08;23.90;;;13.00;;
67640;SDS011;54434;50.096;20.082;2023-04-22T07:17:45;23.20;;;15.00;;
67640;SDS011;54434;50.096;20.082;2023-04-22T07:20:22;25.50;;;15.40;;
67640;SDS011;54434;50.096;20.082;2023-04-22T07:22:58;25.80;;;16.90;;
67640;SDS011;54434;50.096;20.082;2023-04-22T07:25:36;31.00;;;17.70;;
67640;SDS011;54434;50.096;20.082;2023-04-22T07:28:12;29.30;;;16.70;;
67640;SDS011;54434;50.096;20.082;2023-04-22T07:30:49;27.80;;;16.20;;
67640;SDS011;54434;50.096;20.082;2023-04-22T07:33:25;30.30;;;17.20;;
67640;SDS011;54434;50.096;20.082;2023-04-22T07:36:02;26.10;;;17.10;;
67640;SDS011;54434;50.096;20.082;2023-04-22T07:38:53;24.00;;;16.70;;
67640;SDS011;54434;50.096;20.082;2023-04-22T07:41:30;28.40;;;16.60;;
67640;SDS011;54434;50.096;20.082;2023-04-22T07:44:06;26.50;;;16.10;;
67640;SDS011;54434;50.096;20.082;2023-04-22T07:46:59;25.70;;;16.10;;
67640;SDS011;54434;50.096;20.082;2023-04-22T07:49:35;30.20;;;16.40;;
67640;SDS011;54434;50.096;20.082;2023-04-22T07:52:12;27.80;;;17.10;;
67640;SDS011;54434;50.096;20.082;2023-04-22T07:54:49;26.30;;;16.30;;
67640;SDS011;54434;50.096;20.082;2023-04-22T07:57:25;25.00;;;15.40;;
67640;SDS011;54434;50.096;20.082;2023-04-22T08:00:02;25.30;;;15.80;;
67640;SDS011;54434;50.096;20.082;2023-04-22T08:02:44;27.40;;;16.50;;
67640;SDS011;54434;50.096;20.082;2023-04-22T08:05:20;31.60;;;16.70;;
67640;SDS011;54434;50.096;20.082;2023-04-22T08:07:57;29.60;;;16.10;;
67640;SDS011;54434;50.096;20.082;2023-04-22T08:10:54;26.70;;;16.20;;
67640;SDS011;54434;50.096;20.082;2023-04-22T08:13:31;35.00;;;16.30;;
67640;SDS011;54434;50.096;20.082;2023-04-22T08:16:08;25.40;;;16.80;;
67640;SDS011;54434;50.096;20.082;2023-04-22T08:18:44;32.80;;;17.40;;
67640;SDS011;54434;50.096;20.082;2023-04-22T08:21:20;34.70;;;17.90;;
67640;SDS011;54434;50.096;20.082;2023-04-22T08:23:57;28.00;;;17.20;;
67640;SDS011;54434;50.096;20.082;2023-04-22T08:26:33;39.80;;;16.30;;
67640;SDS011;54434;50.096;20.082;2023-04-22T08:29:12;26.20;;;12.40;;
67640;SDS011;54434;50.096;20.082;2023-04-22T08:31:48;22.40;;;11.80;;
67640;SDS011;54434;50.096;20.082;2023-04-22T08:34:25;20.90;;;9.90;;
67640;SDS011;54434;50.096;20.082;2023-04-22T08:37:02;16.10;;;9.00;;
67640;SDS011;54434;50.096;20.082;2023-04-22T08:39:38;16.50;;;8.50;;
67640;SDS011;54434;50.096;20.082;2023-04-22T08:42:15;14.60;;;8.20;;
67640;SDS011;54434;50.096;20.082;2023-04-22T08:44:53;13.20;;;6.80;;
67640;SDS011;54434;50.096;20.082;2023-04-22T08:47:31;14.10;;;6.30;;
67640;SDS011;54434;50.096;20.082;2023-04-22T08:50:10;11.80;;;6.40;;
67640;SDS011;54434;50.096;20.082;2023-04-22T08:52:47;12.70;;;6.40;;
67640;SDS011;54434;50.096;20.082;2023-04-22T08:55:24;12.40;;;5.90;;
67640;SDS011;54434;50.096;20.082;2023-04-22T08:58:03;10.10;;;5.70;;
67640;SDS011;54434;50.096;20.082;2023-04-22T09:00:42;10.70;;;5.80;;
67640;SDS011;54434;50.096;20.082;2023-04-22T09:03:20;8.50;;;5.10;;
67640;SDS011;54434;50.096;20.082;2023-04-22T09:05:57;13.20;;;6.70;;
67640;SDS011;54434;50.096;20.082;2023-04-22T09:08:37;11.50;;;5.90;;
67640;SDS011;54434;50.096;20.082;2023-04-22T09:11:13;9.50;;;5.40;;
67640;SDS011;54434;50.096;20.082;2023-04-22T09:13:50;11.10;;;5.40;;
67640;SDS011;54434;50.096;20.082;2023-04-22T09:16:30;8.10;;;4.60;;
67640;SDS011;54434;50.096;20.082;2023-04-22T09:19:16;8.90;;;4.80;;
67640;SDS011;54434;50.096;20.082;2023-04-22T09:21:59;8.70;;;5.30;;
67640;SDS011;54434;50.096;20.082;2023-04-22T09:24:36;9.40;;;6.00;;
67640;SDS011;54434;50.096;20.082;2023-04-22T09:27:14;10.10;;;5.80;;
67640;SDS011;54434;50.096;20.082;2023-04-22T09:29:52;8.60;;;5.50;;
67640;SDS011;54434;50.096;20.082;2023-04-22T09:32:28;11.40;;;5.50;;
67640;SDS011;54434;50.096;20.082;2023-04-22T09:35:07;13.00;;;6.30;;
67640;SDS011;54434;50.096;20.082;2023-04-22T09:37:43;9.00;;;5.00;;
67640;SDS011;54434;50.096;20.082;2023-04-22T09:40:27;9.00;;;5.30;;
67640;SDS011;54434;50.096;20.082;2023-04-22T09:43:10;8.20;;;4.70;;
67640;SDS011;54434;50.096;20.082;2023-04-22T09:45:51;7.40;;;4.50;;
67640;SDS011;54434;50.096;20.082;2023-04-22T09:48:27;11.10;;;5.00;;
67640;SDS011;54434;50.096;20.082;2023-04-22T09:51:15;8.70;;;4.90;;
67640;SDS011;54434;50.096;20.082;2023-04-22T09:54:02;9.60;;;4.90;;
67640;SDS011;54434;50.096;20.082;2023-04-22T09:56:48;7.40;;;4.70;;
67640;SDS011;54434;50.096;20.082;2023-04-22T09:59:27;7.20;;;4.50;;
67640;SDS011;54434;50.096;20.082;2023-04-22T10:02:04;7.60;;;4.60;;
67640;SDS011;54434;50.096;20.082;2023-04-22T10:04:46;7.60;;;4.60;;
67640;SDS011;54434;50.096;20.082;2023-04-22T10:07:23;8.30;;;4.90;;
67640;SDS011;54434;50.096;20.082;2023-04-22T10:10:18;8.10;;;4.40;;
67640;SDS011;54434;50.096;20.082;2023-04-22T10:13:09;8.10;;;4.80;;
67640;SDS011;54434;50.096;20.082;2023-04-22T10:15:50;9.10;;;4.20;;
67640;SDS011;54434;50.096;20.082;2023-04-22T10:18:30;6.90;;;4.20;;
67640;SDS011;54434;50.096;20.082;2023-04-22T10:21:21;8.60;;;4.60;;
67640;SDS011;54434;50.096;20.082;2023-04-22T10:24:04;8.20;;;4.40;;
67640;SDS011;54434;50.096;20.082;2023-04-22T10:26:48;8.20;;;4.40;;
67640;SDS011;54434;50.096;20.082;2023-04-22T10:29:37;9.20;;;4.60;;
67640;SDS011;54434;50.096;20.082;2023-04-22T10:32:28;8.20;;;4.60;;
67640;SDS011;54434;50.096;20.082;2023-04-22T10:35:14;10.10;;;4.80;;
67640;SDS011;54434;50.096;20.082;2023-04-22T10:37:52;7.90;;;4.60;;
67640;SDS011;54434;50.096;20.082;2023-04-22T10:40:29;9.50;;;5.10;;
67640;SDS011;54434;50.096;20.082;2023-04-22T10:43:06;8.10;;;4.80;;
67640;SDS011;54434;50.096;20.082;2023-04-22T10:45:49;10.50;;;5.00;;
67640;SDS011;54434;50.096;20.082;2023-04-22T10:48:51;9.00;;;4.90;;
67640;SDS011;54434;50.096;20.082;2023-04-22T10:51:43;12.60;;;4.70;;
67640;SDS011;54434;50.096;20.082;2023-04-22T10:55:00;12.00;;;5.30;;
67640;SDS011;54434;50.096;20.082;2023-04-22T10:57:43;9.40;;;5.30;;
67640;SDS011;54434;50.096;20.082;2023-04-22T11:00:37;8.60;;;5.10;;
67640;SDS011;54434;50.096;20.082;2023-04-22T11:03:51;10.60;;;4.90;;
67640;SDS011;54434;50.096;20.082;2023-04-22T11:06:28;11.00;;;5.40;;
67640;SDS011;54434;50.096;20.082;2023-04-22T11:09:11;7.80;;;4.90;;
67640;SDS011;54434;50.096;20.082;2023-04-22T11:11:50;9.80;;;5.70;;
67640;SDS011;54434;50.096;20.082;2023-04-22T11:14:26;8.70;;;5.00;;
67640;SDS011;54434;50.096;20.082;2023-04-22T11:17:03;9.90;;;5.40;;
67640;SDS011;54434;50.096;20.082;2023-04-22T11:19:41;8.90;;;5.50;;
67640;SDS011;54434;50.096;20.082;2023-04-22T11:22:23;10.10;;;5.80;;
67640;SDS011;54434;50.096;20.082;2023-04-22T11:25:01;11.30;;;5.60;;
67640;SDS011;54434;50.096;20.082;2023-04-22T11:27:43;11.40;;;5.30;;
67640;SDS011;54434;50.096;20.082;2023-04-22T11:30:21;9.90;;;5.00;;
67640;SDS011;54434;50.096;20.082;2023-04-22T11:33:02;10.30;;;5.30;;
67640;SDS011;54434;50.096;20.082;2023-04-22T11:35:38;9.20;;;5.40;;
67640;SDS011;54434;50.096;20.082;2023-04-22T11:38:15;12.50;;;5.30;;
67640;SDS011;54434;50.096;20.082;2023-04-22T11:40:55;7.60;;;5.10;;
67640;SDS011;54434;50.096;20.082;2023-04-22T11:43:31;10.80;;;5.00;;
67640;SDS011;54434;50.096;20.082;2023-04-22T11:46:08;8.90;;;4.70;;
67640;SDS011;54434;50.096;20.082;2023-04-22T11:48:47;10.00;;;4.70;;
67640;SDS011;54434;50.096;20.082;2023-04-22T11:51:24;8.60;;;5.20;;
67640;SDS011;54434;50.096;20.082;2023-04-22T11:54:06;8.30;;;4.90;;
67640;SDS011;54434;50.096;20.082;2023-04-22T11:56:54;8.00;;;4.90;;
67640;SDS011;54434;50.096;20.082;2023-04-22T11:59:39;8.10;;;4.50;;
67640;SDS011;54434;50.096;20.082;2023-04-22T12:02:17;7.60;;;4.00;;
67640;SDS011;54434;50.096;20.082;2023-04-22T12:04:54;6.80;;;4.40;;
67640;SDS011;54434;50.096;20.082;2023-04-22T12:07:33;8.50;;;4.60;;
67640;SDS011;54434;50.096;20.082;2023-04-22T12:10:11;8.10;;;4.60;;
67640;SDS011;54434;50.096;20.082;2023-04-22T12:12:49;6.50;;;4.20;;
67640;SDS011;54434;50.096;20.082;2023-04-22T12:15:25;6.30;;;4.00;;
67640;SDS011;54434;50.096;20.082;2023-04-22T12:18:21;8.90;;;4.20;;
67640;SDS011;54434;50.096;20.082;2023-04-22T12:21:08;6.70;;;4.00;;
67640;SDS011;54434;50.096;20.082;2023-04-22T12:23:56;7.90;;;4.00;;
67640;SDS011;54434;50.096;20.082;2023-04-22T12:26:36;6.60;;;4.10;;
67640;SDS011;54434;50.096;20.082;2023-04-22T12:29:13;6.80;;;4.00;;
67640;SDS011;54434;50.096;20.082;2023-04-22T12:31:49;7.20;;;4.30;;
67640;SDS011;54434;50.096;20.082;2023-04-22T12:34:25;8.90;;;4.20;;
67640;SDS011;54434;50.096;20.082;2023-04-22T12:37:02;9.20;;;4.90;;
67640;SDS011;54434;50.096;20.082;2023-04-22T12:39:38;7.10;;;3.90;;
67640;SDS011;54434;50.096;20.082;2023-04-22T12:42:15;6.10;;;4.10;;
67640;SDS011;54434;50.096;20.082;2023-04-22T12:44:51;9.10;;;4.00;;
67640;SDS011;54434;50.096;20.082;2023-04-22T12:47:28;8.90;;;3.80;;
67640;SDS011;54434;50.096;20.082;2023-04-22T12:50:07;7.50;;;4.00;;
67640;SDS011;54434;50.096;20.082;2023-04-22T12:52:46;8.20;;;3.80;;
67640;SDS011;54434;50.096;20.082;2023-04-22T12:55:23;7.40;;;3.90;;
67640;SDS011;54434;50.096;20.082;2023-04-22T12:58:00;6.20;;;4.00;;
67640;SDS011;54434;50.096;20.082;2023-04-22T13:00:37;8.90;;;3.60;;
67640;SDS011;54434;50.096;20.082;2023-04-22T13:03:19;7.40;;;3.60;;
67640;SDS011;54434;50.096;20.082;2023-04-22T13:05:56;7.20;;;3.60;;
67640;SDS011;54434;50.096;20.082;2023-04-22T13:08:33;7.50;;;4.10;;
67640;SDS011;54434;50.096;20.082;2023-04-22T13:11:19;8.50;;;4.00;;
67640;SDS011;54434;50.096;20.082;2023-04-22T13:13:56;7.10;;;4.00;;
67640;SDS011;54434;50.096;20.082;2023-04-22T13:16:33;7.40;;;4.10;;
67640;SDS011;54434;50.096;20.082;2023-04-22T13:19:10;6.20;;;3.40;;
67640;SDS011;54434;50.096;20.082;2023-04-22T13:21:46;7.60;;;4.40;;
67640;SDS011;54434;50.096;20.082;2023-04-22T13:24:23;6.00;;;3.70;;
67640;SDS011;54434;50.096;20.082;2023-04-22T13:26:59;9.00;;;3.60;;
67640;SDS011;54434;50.096;20.082;2023-04-22T13:29:36;7.10;;;3.40;;
67640;SDS011;54434;50.096;20.082;2023-04-22T13:32:13;8.40;;;3.80;;
67640;SDS011;54434;50.096;20.082;2023-04-22T13:34:50;6.90;;;4.10;;
67640;SDS011;54434;50.096;20.082;2023-04-22T13:37:26;8.00;;;4.10;;
67640;SDS011;54434;50.096;20.082;2023-04-22T13:40:03;8.30;;;4.00;;
67640;SDS011;54434;50.096;20.082;2023-04-22T13:42:41;8.10;;;4.00;;
67640;SDS011;54434;50.096;20.082;2023-04-22T13:45:18;6.80;;;3.80;;
67640;SDS011;54434;50.096;20.082;2023-04-22T13:47:55;7.40;;;3.90;;
67640;SDS011;54434;50.096;20.082;2023-04-22T13:50:31;5.80;;;3.60;;
67640;SDS011;54434;50.096;20.082;2023-04-22T13:53:08;5.70;;;3.80;;
67640;SDS011;54434;50.096;20.082;2023-04-22T13:55:58;8.40;;;4.10;;
67640;SDS011;54434;50.096;20.082;2023-04-22T13:58:37;6.90;;;4.00;;
67640;SDS011;54434;50.096;20.082;2023-04-22T14:01:14;7.10;;;3.70;;
67640;SDS011;54434;50.096;20.082;2023-04-22T14:03:52;7.40;;;3.90;;
67640;SDS011;54434;50.096;20.082;2023-04-22T14:06:28;7.60;;;3.90;;
67640;SDS011;54434;50.096;20.082;2023-04-22T14:09:14;7.60;;;3.70;;
67640;SDS011;54434;50.096;20.082;2023-04-22T14:11:50;7.20;;;4.10;;
67640;SDS011;54434;50.096;20.082;2023-04-22T14:14:27;7.00;;;3.70;;
67640;SDS011;54434;50.096;20.082;2023-04-22T14:17:03;7.10;;;4.10;;
67640;SDS011;54434;50.096;20.082;2023-04-22T14:19:41;6.90;;;4.00;;
67640;SDS011;54434;50.096;20.082;2023-04-22T14:22:18;6.90;;;3.70;;
67640;SDS011;54434;50.096;20.082;2023-04-22T14:24:54;6.40;;;3.80;;
67640;SDS011;54434;50.096;20.082;2023-04-22T14:27:31;7.10;;;3.80;;
67640;SDS011;54434;50.096;20.082;2023-04-22T14:30:11;7.20;;;4.00;;
67640;SDS011;54434;50.096;20.082;2023-04-22T14:32:49;7.10;;;3.90;;
67640;SDS011;54434;50.096;20.082;2023-04-22T14:35:26;6.90;;;3.80;;
67640;SDS011;54434;50.096;20.082;2023-04-22T14:38:04;7.70;;;3.60;;
67640;SDS011;54434;50.096;20.082;2023-04-22T14:40:43;8.70;;;3.90;;
67640;SDS011;54434;50.096;20.082;2023-04-22T14:43:20;7.40;;;4.00;;
67640;SDS011;54434;50.096;20.082;2023-04-22T14:45:56;7.10;;;3.50;;
67640;SDS011;54434;50.096;20.082;2023-04-22T14:48:33;6.40;;;3.80;;
67640;SDS011;54434;50.096;20.082;2023-04-22T14:51:11;7.70;;;3.90;;
67640;SDS011;54434;50.096;20.082;2023-04-22T14:53:48;7.30;;;3.70;;
67640;SDS011;54434;50.096;20.082;2023-04-22T14:56:25;10.80;;;3.60;;
67640;SDS011;54434;50.096;20.082;2023-04-22T14:59:01;7.40;;;3.80;;
67640;SDS011;54434;50.096;20.082;2023-04-22T15:01:38;5.60;;;3.50;;
67640;SDS011;54434;50.096;20.082;2023-04-22T15:04:15;8.00;;;4.00;;
67640;SDS011;54434;50.096;20.082;2023-04-22T15:06:52;6.60;;;3.90;;
67640;SDS011;54434;50.096;20.082;2023-04-22T15:09:29;5.70;;;3.40;;
67640;SDS011;54434;50.096;20.082;2023-04-22T15:12:20;6.50;;;3.50;;
67640;SDS011;54434;50.096;20.082;2023-04-22T15:14:56;8.20;;;3.90;;
67640;SDS011;54434;50.096;20.082;2023-04-22T15:17:33;6.10;;;3.50;;
67640;SDS011;54434;50.096;20.082;2023-04-22T15:20:14;5.60;;;3.70;;
67640;SDS011;54434;50.096;20.082;2023-04-22T15:22:50;7.40;;;3.70;;
67640;SDS011;54434;50.096;20.082;2023-04-22T15:25:27;7.80;;;3.60;;
67640;SDS011;54434;50.096;20.082;2023-04-22T15:28:04;6.70;;;3.50;;
67640;SDS011;54434;50.096;20.082;2023-04-22T15:30:40;7.70;;;3.50;;
67640;SDS011;54434;50.096;20.082;2023-04-22T15:33:16;6.70;;;3.50;;
67640;SDS011;54434;50.096;20.082;2023-04-22T15:35:53;6.20;;;3.40;;
67640;SDS011;54434;50.096;20.082;2023-04-22T15:38:29;8.80;;;3.80;;